Tiempo atmosférico en la estación meteorológica de Sa Pobla, Illes Balears (40 m.)



Fecha
DESCASC
Temp. máxima en grados centígrados (hora)
DESCASC
Temp. mínima en grados centígrados (hora)
DESCASC
Temp. media en grados centígrados
DESCASC
Racha de viento máxima en m/sg (hora)
DESCASC
Velocidad máxima media en intervalos de 10 minutos(hora)
DESCASC
Precipitaciones diarias en mm
DESCASC
Precipitaciones de 00:00 a 06:00 en mm
DESCASC
Precipitaciones de 06:00 a 12:00 en mm
DESCASC
Precipitaciones de 12:00 a 18:00 en mm
DESCASC
Precipitaciones de 18:00 a 24:00 en mm
DESCASC
13-10-2019 28.9 (15:40) 18.3 (08:50) 23.6 6.67 (15:50) 3.89 (14:40) 0 0 0 0 0
12-10-2019 27.9 (15:20) 15.7 (07:10) 21.8 7.78 (18:50) 4.72 (17:40) 0 0 0 0 0
11-10-2019 28.3 (14:00) 14 (07:50) 21.1 7.78 (16:10) 5 (17:50) 0 0 0 0 0
10-10-2019 23.9 (11:50) 16.5 (00:00) 20.2 7.22 (12:20) 4.44 (12:40) 0 0 0 0 0
09-10-2019 28.9 (14:40) 14 (00:00) 21.4 9.17 (17:30) 6.11 (18:20) 0 0 0 0 0
08-10-2019 27.8 (15:30) 11.3 (00:00) 19.5 6.67 (14:20) 3.06 (14:10) 0 0 0 0 0
07-10-2019 24.7 (13:50) 14.8 (00:00) 19.8 12.78 (04:40) 7.78 (12:10) 0 0 0 0 0
06-10-2019 26.6 (12:30) 15.3 (00:00) 21 7.22 (13:10) 4.44 (14:10) 0 0 0 0 0
05-10-2019 26.1 (14:10) 13.9 (00:00) 20 7.78 (12:50) 5 (12:50) 0 0 0 0 0
04-10-2019 28.5 (15:30) 13.4 (00:00) 20.9 6.94 (14:20) 3.61 (14:20) 0 0 0 0 0
03-10-2019 26.9 (13:20) 15.4 (00:00) 21.1 8.06 (14:10) 4.72 (14:10) 0 0 0 0 0
02-10-2019 24.1 (10:40) 15.9 (00:00) 20 11.67 (04:30) 7.5 (04:30) 1 0 0 1 0
01-10-2019 30.9 (15:10) 15.7 (00:00) 23.3 8.89 (12:30) 4.72 (12:40) 0 0 0 0 0
30-09-2019 29.3 (13:50) 15.1 (00:00) 22.2 6.94 (14:50) 4.17 (16:10) 0 0 0 0 0
29-09-2019 31.5 (15:10) 17.5 (00:00) 24.5 9.72 (18:10) 5 (18:20) 0 0 0 0 0
28-09-2019 29.2 (13:50) 17.2 (00:00) 23.2 7.22 (17:00) 5 (16:50) 0 0 0 0 0
27-09-2019 31 (15:30) 17.6 (00:00) 24.3 8.33 (17:30) 3.89 (19:00) 0 0 0 0 0
26-09-2019 28.8 (13:10) 16.3 (00:00) 22.5 6.94 (14:20) 4.17 (15:30) 0 0 0 0 0
25-09-2019 27.9 (13:30) 16.8 (00:00) 22.3 10.28 (15:10) 7.22 (15:10) 0 0 0 0 0
24-09-2019 30.3 (14:40) 17 (00:00) 23.6 11.11 (11:50) 5.56 (15:50) 0 0 0 0 0
23-09-2019 27 (15:40) 20.1 (00:00) 23.6 8.06 (11:50) 4.72 (10:30) 0 0 0 0 0
22-09-2019 31.8 (15:50) 20.4 (00:00) 26.1 9.44 (16:50) 4.72 (18:10) 0 0 0 0 0
21-09-2019 33.5 (16:30) 22.6 (00:00) 28.1 10 (16:30) 5 (21:40) 0 0 0 0 0
20-09-2019 28.1 (13:30) 18.4 (00:00) 23.3 10 (15:10) 6.11 (15:10) 0 0 0 0 0
19-09-2019 29.1 (14:00) 18.3 (00:00) 23.7 7.78 (15:50) 4.17 (15:50) 0 0 0 0 0
18-09-2019 30.6 (14:10) 18.5 (00:00) 24.6 7.78 (14:40) 4.17 (15:20) 0 0 0 0 0
17-09-2019 30 (13:00) 19.9 (00:00) 24.9 6.67 (18:00) 4.17 (18:00) 0 0 0 0 0
16-09-2019 29.6 (12:30) 20.7 (00:00) 25.2 7.5 (11:20) 4.44 (11:20) 0 0 0 0 0
15-09-2019 31.2 (15:20) 22.7 (00:00) 27 8.89 (11:20) 5 (12:30) 0 0 0 0 0

Gráficas

Temp. máximas Temp. mínimas Temp. medias Precipitaciones Rachas de viento máximas Velocidades máximas media en intervalos de 10 minutos

Datos horarios

Fecha y hora oficial Temperatura (ºC) Velocidad del viento (km/h) Dirección del viento Racha (km/h) Dirección de racha Precipitación (mm) Presión (hPa) Tendencia (hPa) Humedad (%)
2019-10-14 23:00:00 20.5 4 Oeste 13 Oeste 0 1009.3 0.5 92
2019-10-14 22:00:00 20.9 4 Oeste 12 Este 0.2 1009.1 0.5 89
2019-10-14 21:00:00 21.4 9 Nordeste 22 Nordeste 1.2 1008 0.3 83
2019-10-14 20:00:00 23.3 15 Norte 30 Norte 0 1008.8 1.5 73
2019-10-14 19:00:00 25.7 7 Norte 18 Oeste 0 1008.6 0.5 61
2019-10-14 18:00:00 27.7 9 Sudoeste 20 Sur 0 1007.7 -0.3 44
2019-10-14 17:00:00 29.4 11 Sur 31 Sur 0 1007.3 -1.5 33
2019-10-14 16:00:00 30.5 17 Sur 37 Sur 0 1008.1 -1.7 37
2019-10-14 15:00:00 31.6 16 Sudeste 32 Sur 0 1008 -2.7 36
2019-10-14 14:00:00 31 12 Sudeste 20 Sudeste 0 1008.8 -2.5 36
2019-10-14 13:00:00 29.4 8 Sur 18 Sudoeste 0 1009.8 -1.8 45
2019-10-14 12:00:00 26.9 11 Sur 18 Sur 0 1010.7 -0.7 56
2019-10-14 11:00:00 23.8 10 Sur 15 Sur 0 1011.3 0.5 78
2019-10-14 10:00:00 20.1 5 Sur 14 Sur 0 1011.6 0.5 90
2019-10-14 09:00:00 16.8 3 Sur 15 Sudoeste 0 1011.4 -0.1 94
2019-10-14 08:00:00 15.6 4 Sudoeste 8 Sudoeste 0 1010.8 -0.6 94
2019-10-14 07:00:00 16.4 5 Sudoeste 8 Sudoeste 0 1011.1 -0.8 93
2019-10-14 06:00:00 17.1 5 Sur 11 Oeste 0 1011.5 -0.7 92
2019-10-14 05:00:00 17.5 5 Sur 10 Oeste 0 1011.4 -1 89
2019-10-14 04:00:00 18.2 4 Sudoeste 9 Oeste 0 1011.9 -0.6 87
2019-10-14 03:00:00 19.3 4 Sudoeste 11 Oeste 0 1012.2 -0.8 88
2019-10-14 02:00:00 18.8 7 Oeste 12 Oeste 0 1012.4 -0.6 91
2019-10-14 01:00:00 18.6 2 Oeste 7 Sudoeste 0 1012.5 -0.5 92
2019-10-14 00:00:00 19.5 5 Sur 8 Sudoeste 0 1013 0 91
2019-10-13 23:00:00 19.9 2 Sudoeste 8 Oeste 0 1013 0.3 90
2019-10-13 22:00:00 20.9 5 Oeste 7 Oeste 0 1013 0.8 88
2019-10-13 21:00:00 21.7 0 Calma 6 Sudeste 0 1013 0.9 80
2019-10-13 20:00:00 23.4 4 Nordeste 13 Este 0 1012.7 0.5 73
2019-10-13 19:00:00 25.3 8 Este 19 Sudeste 0 1012.2 0 66
2019-10-13 18:00:00 27 12 Sudeste 17 Sudeste 0 1012.1 -0.3 60
2019-10-13 17:00:00 28.2 9 Este 19 Sudeste 0 1012.2 -0.8 54
2019-10-13 16:00:00 28.5 12 Sudeste 24 Este 0 1012.2 -1.3 54
2019-10-13 15:00:00 27.9 12 Nordeste 22 Norte 0 1012.4 -1.5 61
2019-10-13 14:00:00 27.6 11 Norte 22 Norte 0 1013 -1.1 60
2019-10-13 13:00:00 28 5 Norte 16 Este 0 1013.5 -0.5 59
2019-10-13 12:00:00 26.6 5 Nordeste 13 Sur 0 1013.9 0.1 64
2019-10-13 11:00:00 24.4 6 Nordeste 13 Nordeste 0 1014.1 0.7 74
2019-10-13 10:00:00 22 4 Norte 7 Noroeste 0 1014 0.5 87
2019-10-13 09:00:00 18.7 3 Oeste 5 Noroeste 0 1013.8 0.2 92
2019-10-13 08:00:00 19.1 3 Sudoeste 6 Sur 0 1013.4 -0.3 89
2019-10-13 07:00:00 19.7 2 Este 5 Sudeste 0 1013.5 -0.4 87
2019-10-13 06:00:00 20.1 2 Sudoeste 7 Sudeste 0 1013.6 -1 85
2019-10-13 05:00:00 20.8 4 Oeste 9 Oeste 0 1013.7 -1 84
2019-10-13 04:00:00 20.6 2 Sudoeste 12 Oeste 0 1013.9 -1.1 85
2019-10-13 03:00:00 21.2 5 Oeste 13 Oeste 0 1014.6 -0.8 86
2019-10-13 02:00:00 20.9 4 Sudoeste 11 Oeste 0 1014.7 -0.6 89
2019-10-13 01:00:00 20.4 5 Oeste 9 Oeste 0 1015 -0.4 90
2019-10-13 00:00:00 20.3 6 Oeste 10 Oeste 0 1015.4 0.2 89
2019-10-12 23:00:00 20.6 5 Oeste 9 Oeste 0 1015.3 0.3 85
2019-10-12 22:00:00 21 5 Sudoeste 8 Oeste 0 1015.4 0.7 82
2019-10-12 21:00:00 21.9 3 Sur 9 Sudeste 0 1015.2 0.9 78
2019-10-12 20:00:00 22.8 5 Sudeste 21 Sudeste 0 1015 0.5 73
2019-10-12 19:00:00 23.8 16 Sudeste 28 Sudeste 0 1014.7 -0.1 69
2019-10-12 18:00:00 25.1 14 Sudeste 27 Sudeste 0 1014.3 -0.9 61
2019-10-12 17:00:00 26.7 16 Sudeste 24 Sudeste 0 1014.5 -1.4 55
2019-10-12 16:00:00 27.9 15 Sudeste 26 Este 0 1014.8 -1.8 52
2019-10-12 15:00:00 27.5 11 Sudeste 26 Sudeste 0 1015.2 -1.8 52
2019-10-12 14:00:00 27.2 14 Sudeste 25 Sudeste 0 1015.9 -1.2 54
2019-10-12 13:00:00 27 10 Sudeste 19 Sudeste 0 1016.6 -0.3 55
2019-10-12 12:00:00 24.8 4 Oeste 15 Sudeste 0 1017 0.5 64
2019-10-12 11:00:00 23.9 4 Nordeste 14 Sur 0 1017.1 0.8 70
2019-10-12 10:00:00 20 3 Oeste 6 Sudoeste 0 1016.9 0.5 92
2019-10-12 09:00:00 17.3 4 Sudoeste 10 Sudeste 0 1016.5 0.3 94
2019-10-12 08:00:00 15.8 4 Sur 9 Sudeste 0 1016.3 0 93
2019-10-12 07:00:00 15.8 4 Sur 7 Sudeste 0 1016.4 0.1 93
2019-10-12 06:00:00 16.4 4 Sudoeste 7 Oeste 0 1016.2 -0.7 92
2019-10-12 05:00:00 17.1 3 Sudoeste 13 Oeste 0 1016.3 -0.9 90
2019-10-12 04:00:00 17.8 5 Oeste 10 Oeste 0 1016.3 -1.2 91
2019-10-12 03:00:00 17.2 5 Oeste 10 Oeste 0 1016.9 -0.8 91
2019-10-12 02:00:00 17.1 3 Sur 8 Oeste 0 1017.2 -0.7 88
2019-10-12 01:00:00 19 4 Sudoeste 10 Oeste 0 1017.5 0.1 88
2019-10-12 00:00:00 19.5 4 Oeste 11 Oeste 0 1017.7 0.3 84
2019-10-11 23:00:00 19.8 5 Oeste 9 Oeste 0 1017.9 0.9 83
2019-10-11 22:00:00 20.4 5 Sudoeste 9 Sudoeste 0 1017.4 0.8 79
2019-10-11 21:00:00 21.4 6 Sudoeste 14 Sur 0 1017.4 0.9 75
2019-10-11 20:00:00 22.4 9 Sur 23 Sudeste 0 1017 0.5 69
2019-10-11 19:00:00 23.6 14 Sudeste 28 Sudeste 0 1016.6 -0.2 63
2019-10-11 18:00:00 25.9 13 Sudeste 27 Sudeste 0 1016.5 -0.8 55
2019-10-11 17:00:00 26.4 16 Sudeste 28 Sudeste 0 1016.5 -1.5 52
2019-10-11 16:00:00 27.3 13 Sudeste 21 Sudeste 0 1016.8 -2 49
2019-10-11 15:00:00 26.9 9 Sur 19 Sur 0 1017.3 -2.1 50
2019-10-11 14:00:00 28.3 6 Sudeste 19 Sudeste 0 1018 -1.5 46
2019-10-11 13:00:00 26.2 10 Sur 22 Sudoeste 0 1018.8 -0.6 53
2019-10-11 12:00:00 25.2 9 Sudoeste 17 Sudoeste 0 1019.4 0.3 58
2019-10-11 11:00:00 23.7 5 Sudoeste 13 Sur 0 1019.5 0.8 63
2019-10-11 10:00:00 20.2 3 Sur 9 Sur 0 1019.4 0.8 84
2019-10-11 09:00:00 15.8 8 Sur 10 Sur 0 1019.1 0.6 95
2019-10-11 08:00:00 14.1 8 Sur 10 Sur 0 1018.7 0.4 95
2019-10-11 07:00:00 14.1 6 Sur 9 Sur 0 1018.6 0.2 95
2019-10-11 06:00:00 14.3 5 Sur 9 Sur 0 1018.5 -0.2 94
2019-10-11 05:00:00 14.7 6 Sur 9 Sur 0 1018.3 -0.5 93
2019-10-11 04:00:00 15.2 6 Sur 9 Sur 0 1018.4 -0.7 92
2019-10-11 03:00:00 15.5 4 Sudoeste 8 Sur 0 1018.7 -0.6 90
2019-10-11 02:00:00 15.7 4 Sur 7 Sur 0 1018.8 -0.4 87
2019-10-11 01:00:00 16.3 4 Sur 7 Sudoeste 0 1019.1 0 84
2019-10-11 00:00:00 17.4 3 Sudoeste 9 Oeste 0 1019.3 0.8 81
2019-10-10 23:00:00 18.3 5 Sudoeste 8 Sudoeste 0 1019.2 1.1 79
2019-10-10 22:00:00 19.4 4 Sur 5 Sur 0 1019.1 1.4 76
2019-10-10 21:00:00 20.4 2 Norte 8 Norte 0 1018.5 0.9 73
2019-10-10 20:00:00 20.9 5 Norte 12 Nordeste 0 1018.1 0.4 70
2019-10-10 19:00:00 21.1 10 Nordeste 19 Nordeste 0 1017.7 -0.2 68
2019-10-10 18:00:00 21.7 14 Nordeste 21 Nordeste 0 1017.6 -0.5 64
2019-10-10 17:00:00 22.2 15 Nordeste 23 Nordeste 0 1017.7 -0.7 64
2019-10-10 16:00:00 22.5 11 Nordeste 23 Norte 0 1017.9 -0.9 62
2019-10-10 15:00:00 22.2 11 Nordeste 23 Nordeste 0 1018.1 -0.5 62
2019-10-10 14:00:00 22.3 10 Nordeste 19 Nordeste 0 1018.4 -0.2 64
2019-10-10 13:00:00 22.2 13 Nordeste 26 Nordeste 0 1018.8 0.2 65
2019-10-10 12:00:00 23.4 8 Nordeste 19 Nordeste 0 1018.6 1 64
2019-10-10 11:00:00 22.3 10 Nordeste 19 Nordeste 0 1018.6 2 67
2019-10-10 10:00:00 20.5 6 Nordeste 9 Nordeste 0 1018.6 2.2 80
2019-10-10 09:00:00 19.2 2 Sur 7 Sudoeste 0 1017.6 1.5 85
2019-10-10 08:00:00 18.5 4 Sudoeste 6 Sudoeste 0 1016.6 0.5 86
2019-10-10 07:00:00 18.4 3 Sur 5 Sudoeste 0 1016.4 0.2 86
2019-10-10 06:00:00 17.9 2 Sudoeste 5 Sudoeste 0 1016.1 -0.3 86
2019-10-10 05:00:00 17.7 3 Sur 5 Sudeste 0 1016.1 -0.2 86
2019-10-10 04:00:00 17.2 3 Sur 5 Sur 0 1016.2 -0.2 89
2019-10-10 03:00:00 16.6 3 Sudoeste 5 Sudoeste 0 1016.4 0.2 85
2019-10-10 02:00:00 17.5 3 Sudoeste 4 Noroeste 0 1016.3 0.6 82
2019-10-10 01:00:00 18.5 2 Este 7 Noroeste 0 1016.4 1.1 79
2019-10-10 00:00:00 19.8 3 Norte 8 Norte 0 1016.2 1.3 78
2019-10-09 23:00:00 20.1 5 Norte 8 Norte 0 1015.7 1.1 77
2019-10-09 22:00:00 20.4 6 Norte 9 Norte 0 1015.3 1.3 74
2019-10-09 21:00:00 21.3 5 Este 14 Norte 0 1014.9 1.7 70
2019-10-09 20:00:00 22.5 11 Norte 28 Norte 0 1014.6 1.7 65
2019-10-09 19:00:00 23 17 Norte 30 Nordeste 0 1014 1.2 62
2019-10-09 18:00:00 23.9 22 Nordeste 33 Nordeste 0 1013.2 0.6 60
2019-10-09 17:00:00 25.4 21 Nordeste 31 Norte 0 1012.9 -0.5 57
2019-10-09 16:00:00 26.5 18 Nordeste 31 Nordeste 0 1012.8 -1.4 52
2019-10-09 15:00:00 28.1 11 Nordeste 27 Nordeste 0 1012.6 -1.8 47
2019-10-09 14:00:00 28.2 3 Norte 14 Sur 0 1013.4 -1.2 39
2019-10-09 13:00:00 27.2 7 Sur 17 Sudoeste 0 1014.2 -0.4 42
2019-10-09 12:00:00 25.3 7 Sudoeste 21 Sur 0 1014.4 -0.1 50
2019-10-09 11:00:00 24 11 Sudoeste 20 Sudoeste 0 1014.6 0.6 57
2019-10-09 10:00:00 21.6 8 Sur 14 Sur 0 1014.6 0.4 64
2019-10-09 09:00:00 16.6 7 Sur 12 Sur 0 1014.5 0.3 83
2019-10-09 08:00:00 14.1 8 Sur 12 Sur 0 1014 -0.3 87
2019-10-09 07:00:00 14.2 6 Sudoeste 10 Sudoeste 0 1014.2 -0.3 85
2019-10-09 06:00:00 14.6 6 Sudoeste 11 Sudoeste 0 1014.2 -0.4 84
2019-10-09 05:00:00 14.9 7 Sudoeste 10 Sudoeste 0 1014.3 -0.6 83
2019-10-09 04:00:00 15.1 6 Sur 10 Sur 0 1014.5 -0.7 82
2019-10-09 03:00:00 15.5 6 Sur 9 Sudoeste 0 1014.6 -0.6 80
2019-10-09 02:00:00 16.1 5 Sur 11 Sudoeste 0 1014.9 -0.3 76
2019-10-09 01:00:00 17.2 7 Sudoeste 14 Sudoeste 0 1015.2 0 74
2019-10-09 00:00:00 17.4 8 Sur 13 Sur 0 1015.2 0.2 72
2019-10-08 23:00:00 17.8 5 Sudeste 10 Sur 0 1015.2 0.6 68
2019-10-08 22:00:00 19.5 6 Sur 11 Sur 0 1015.2 0.8 64
2019-10-08 21:00:00 20.2 4 Sur 11 Sudoeste 0 1015 0.8 63
2019-10-08 20:00:00 21.8 6 Sudoeste 19 Sudoeste 0 1014.6 0.1 58
2019-10-08 19:00:00 24 9 Sudoeste 20 Sudoeste 0 1014.4 -0.4 50
2019-10-08 18:00:00 25.9 9 Sudoeste 22 Sudoeste 0 1014.2 -1 41
2019-10-08 17:00:00 27.2 5 Oeste 16 Sudeste 0 1014.5 -1.3 39
2019-10-08 16:00:00 27.4 8 Sudoeste 19 Sur 0 1014.8 -1.9 35
2019-10-08 15:00:00 27.2 9 Sur 24 Sudoeste 0 1015.2 -1.9 32
2019-10-08 14:00:00 27 7 Sudoeste 19 Sur 0 1015.8 -1.5 32
2019-10-08 13:00:00 25.9 8 Sudoeste 21 Sudoeste 0 1016.7 -0.5 35
2019-10-08 12:00:00 24.4 6 Oeste 17 Sur 0 1017.1 0.4 41
2019-10-08 11:00:00 23.2 6 Sudeste 12 Sudeste 0 1017.3 0.9 51
2019-10-08 10:00:00 19.1 6 Sur 11 Sur 0 1017.2 1.4 64
2019-10-08 09:00:00 14.4 6 Sudoeste 14 Sudoeste 0 1016.7 1.3 81
2019-10-08 08:00:00 11.9 8 Sur 14 Sur 0 1016.4 1 88
2019-10-08 07:00:00 11.7 5 Oeste 12 Oeste 0 1015.8 0.6 89
2019-10-08 06:00:00 11.9 6 Oeste 9 Sur 0 1015.4 -0.3 90
2019-10-08 05:00:00 11.9 3 Sur 13 Sur 0 1015.4 -0.2 88
2019-10-08 04:00:00 12.3 3 Sudeste 10 Oeste 0 1015.2 -0.3 87
2019-10-08 03:00:00 13.2 5 Sudoeste 9 Sudeste 0 1015.7 0.1 90
2019-10-08 02:00:00 13.5 5 Sudoeste 9 Oeste 0 1015.6 0.1 91
2019-10-08 01:00:00 14.5 7 Oeste 10 Oeste 0 1015.5 0.6 90
2019-10-08 00:00:00 14.8 4 Sudoeste 5 Sudoeste 0 1015.6 1.5 85
2019-10-07 23:00:00 16 4 Noroeste 10 Noroeste 0 1015.5 1.9 81
2019-10-07 22:00:00 17.1 5 Noroeste 8 Nordeste 0 1014.9 2.1 77
2019-10-07 21:00:00 18.5 6 Norte 15 Nordeste 0 1014.1 2.2 73
2019-10-07 20:00:00 19.6 13 Nordeste 19 Nordeste 0 1013.6 1.9 68
2019-10-07 19:00:00 21.2 13 Nordeste 26 Nordeste 0 1012.8 1.1 62
2019-10-07 18:00:00 22.2 15 Norte 27 Nordeste 0 1011.9 0.3 57
2019-10-07 17:00:00 23.1 15 Norte 28 Nordeste 0 1011.7 -0.1 52
2019-10-07 16:00:00 23.5 16 Norte 30 Norte 0 1011.7 -0.3 51
2019-10-07 15:00:00 23.8 16 Norte 31 Nordeste 0 1011.6 -0.6 47
2019-10-07 14:00:00 24 19 Norte 40 Nordeste 0 1011.8 -0.4 47
2019-10-07 13:00:00 23.9 22 Norte 45 Nordeste 0 1012 0.1 44
2019-10-07 12:00:00 21.8 23 Norte 41 Norte 0 1012.2 0.6 55
2019-10-07 11:00:00 21.5 21 Norte 33 Norte 0 1012.2 1.9 56
2019-10-07 10:00:00 20.3 18 Norte 30 Norte 0 1011.9 2 61
2019-10-07 09:00:00 19 18 Nordeste 36 Nordeste 0 1011.6 1.9 71
2019-10-07 08:00:00 19 6 Norte 35 Noroeste 0 1010.3 0.8 61
2019-10-07 07:00:00 20.9 21 Noroeste 36 Noroeste 0 1009.9 -0.6 50
2019-10-07 06:00:00 21.5 11 Noroeste 35 Noroeste 0 1009.7 -1.8 54
2019-10-07 05:00:00 21.8 19 Noroeste 46 Noroeste 0 1009.5 -2.6 52
2019-10-07 04:00:00 18.2 5 Oeste 17 Sudoeste 0 1010.5 -1.9 94
2019-10-07 03:00:00 17.4 5 Oeste 12 Sur 0 1011.5 -1.4 94
2019-10-07 02:00:00 17.4 6 Sur 10 Sur 0 1012.1 -0.9 92
2019-10-07 01:00:00 18.1 4 Oeste 9 Oeste 0 1012.4 -0.5 92
2019-10-07 00:00:00 18.3 4 Sudoeste 11 Sur 0 1012.9 0.3 90
2019-10-06 23:00:00 19.2 4 Sur 8 Norte 0 1013 0.6 86
2019-10-06 22:00:00 20.1 5 Noroeste 7 Noroeste 0 1012.9 0.6 82
2019-10-06 21:00:00 21.4 0 Calma 6 Nordeste 0 1012.6 0.3 77
2019-10-06 20:00:00 22.8 4 Norte 13 Norte 0 1012.4 0.3 72
2019-10-06 19:00:00 23.4 9 Nordeste 16 Nordeste 0 1012.3 -0.6 69
2019-10-06 18:00:00 24.9 8 Sudeste 24 Sudeste 0 1012.3 -1.2 64
2019-10-06 17:00:00 25.8 15 Sudeste 21 Sudeste 0 1012.1 -2.1 60
2019-10-06 16:00:00 25.9 8 Nordeste 19 Nordeste 0 1012.9 -1.4 57
2019-10-06 15:00:00 25.5 10 Este 25 Nordeste 0 1013.5 -1.3 60
2019-10-06 14:00:00 25.6 15 Nordeste 26 Nordeste 0 1014.2 0 61
2019-10-06 13:00:00 25.3 14 Nordeste 26 Nordeste 0 1014.3 0.4 64
2019-10-06 12:00:00 25.9 8 Nordeste 17 Nordeste 0 1014.8 1.3 58
2019-10-06 11:00:00 24.1 6 Norte 10 Norte 0 1014.2 0.9 71
2019-10-06 10:00:00 21.2 3 Este 7 Sudeste 0 1013.9 0.9 84
2019-10-06 09:00:00 17.4 3 Sudoeste 9 Sur 0 1013.5 0.8 96
2019-10-06 08:00:00 15.6 5 Sudoeste 8 Sur 0 1013.3 0.7 96
2019-10-06 07:00:00 15.4 6 Sudeste 9 Sur 0 1013 0.2 95
2019-10-06 06:00:00 16.1 3 Sudoeste 9 Sur 0 1012.7 -0.2 95
2019-10-06 05:00:00 16.6 5 Sur 9 Sudoeste 0 1012.6 -0.4 94
2019-10-06 04:00:00 16.6 4 Sur 7 Sudoeste 0 1012.8 -0.1 93
2019-10-06 03:00:00 17.7 5 Sudoeste 6 Sudoeste 0 1012.9 -0.1 92
2019-10-06 02:00:00 18.4 2 Oeste 6 Sudoeste 0 1013 0 90
2019-10-06 01:00:00 19.3 3 Sudoeste 6 Sur 0 1012.9 0.2 86
2019-10-06 00:00:00 20.1 0 Calma 6 Sudeste 0 1013 0.7 83
2019-10-05 23:00:00 21 2 Noroeste 5 Noroeste 0 1013 1.2 80
2019-10-05 22:00:00 21.6 0 Calma 5 Sudeste 0 1012.7 1.2 77
2019-10-05 21:00:00 21.8 3 Sudeste 13 Sudeste 0 1012.3 0.9 75
2019-10-05 20:00:00 22.6 6 Sudeste 17 Sudeste 0 1011.8 0.6 71
2019-10-05 19:00:00 23.8 10 Sudeste 17 Sudeste 0 1011.5 0.1 67
2019-10-05 18:00:00 24.1 8 Norte 22 Nordeste 0 1011.4 -0.3 66
2019-10-05 17:00:00 25.4 8 Sudeste 18 Nordeste 0 1011.2 -0.9 59
2019-10-05 16:00:00 25.4 10 Nordeste 23 Nordeste 0 1011.4 -1.2 60
2019-10-05 15:00:00 25 12 Nordeste 27 Norte 0 1011.7 -0.6 60
2019-10-05 14:00:00 26 12 Nordeste 27 Nordeste 0 1012.1 0 58
2019-10-05 13:00:00 25 16 Nordeste 28 Nordeste 0 1012.6 0.8 62
2019-10-05 12:00:00 23.5 14 Nordeste 27 Norte 0 1012.3 0.8 71
2019-10-05 11:00:00 23.3 2 Oeste 7 Sudoeste 0 1012.1 1.3 70
2019-10-05 10:00:00 20.3 5 Sudoeste 9 Sudoeste 0 1011.8 0.7 74
2019-10-05 09:00:00 16.7 0 Calma 9 Sudoeste 0 1011.5 0.7 91
2019-10-05 08:00:00 14.1 5 Sudoeste 9 Sudoeste 0 1010.8 -0.3 93
2019-10-05 07:00:00 13.9 4 Sur 10 Oeste 0 1011.1 0 92
2019-10-05 06:00:00 14.4 6 Sudoeste 9 Sudoeste 0 1010.8 -0.3 92
2019-10-05 05:00:00 14.9 2 Norte 7 Noroeste 0 1011.1 -0.2 92
2019-10-05 04:00:00 15.4 3 Norte 10 Norte 0 1011.1 -0.3 90
2019-10-05 03:00:00 17.7 4 Sur 9 Sur 0 1011.1 -0.6 92
2019-10-05 02:00:00 17.9 5 Sur 10 Sur 0 1011.3 -0.3 90
2019-10-05 01:00:00 18.4 5 Sudoeste 14 Sur 0 1011.4 -0.3 87
2019-10-05 00:00:00 18.6 5 Sur 11 Sur 0 1011.7 0.1 80
2019-10-04 23:00:00 19.6 7 Sur 13 Sudoeste 0 1011.6 0.3 77
2019-10-04 22:00:00 20.5 8 Sur 21 Sudoeste 0 1011.7 0.4 72
2019-10-04 21:00:00 21.8 10 Sudoeste 22 Sudoeste 0 1011.6 0.4 67
2019-10-04 20:00:00 22.7 9 Sudoeste 24 Sudoeste 0 1011.3 0 62
2019-10-04 19:00:00 24.6 12 Sudoeste 24 Sudoeste 0 1011.3 -0.5 53
2019-10-04 18:00:00 26.7 10 Sudoeste 24 Sudoeste 0 1011.2 -1 47
2019-10-04 17:00:00 27.6 12 Sudoeste 24 Sudoeste 0 1011.3 -1.5 41
2019-10-04 16:00:00 28.4 8 Sur 24 Oeste 0 1011.8 -2 38
2019-10-04 15:00:00 27.7 9 Sudoeste 25 Sur 0 1012.2 -1.9 38
2019-10-04 14:00:00 27.3 4 Sudeste 19 Sur 0 1012.8 -1.6 41
2019-10-04 13:00:00 26.4 7 Sur 15 Sudeste 0 1013.8 -0.5 46
2019-10-04 12:00:00 24.7 7 Sudeste 21 Sudoeste 0 1014.1 0.3 57
2019-10-04 11:00:00 23 6 Sudoeste 13 Sur 0 1014.4 1 71
2019-10-04 10:00:00 19.9 4 Sur 9 Sur 0 1014.3 1.2 86
2019-10-04 09:00:00 15.6 6 Sur 9 Sur 0 1013.8 0.7 95
2019-10-04 08:00:00 13.6 6 Sur 11 Sur 0 1013.4 0.2 96
2019-10-04 07:00:00 13.6 6 Sur 10 Sur 0 1013.1 -0.2 95
2019-10-04 06:00:00 14.2 6 Sur 9 Sur 0 1013.1 -0.1 95
2019-10-04 05:00:00 14.8 4 Sur 12 Sur 0 1013.2 -0.1 95
2019-10-04 04:00:00 14.5 7 Sur 9 Sur 0 1013.3 -0.2 94
2019-10-04 03:00:00 15.1 6 Sur 9 Sur 0 1013.2 -0.3 93
2019-10-04 02:00:00 15.4 4 Sur 8 Sudoeste 0 1013.3 -0.1 92
2019-10-04 01:00:00 16 4 Sudoeste 9 Sudoeste 0 1013.5 0 90
2019-10-04 00:00:00 17.1 3 Sudoeste 10 Oeste 0 1013.5 0.7 87
2019-10-03 23:00:00 17.8 6 Oeste 9 Oeste 0 1013.4 1.6 84
2019-10-03 22:00:00 18.8 4 Sudoeste 9 Sudoeste 0 1013.5 2 79
2019-10-03 21:00:00 19.9 6 Sudoeste 12 Sudeste 0 1012.8 1.5 75
2019-10-03 20:00:00 21.2 9 Sudeste 19 Este 0 1011.8 0.7 71
2019-10-03 19:00:00 22.9 15 Este 24 Este 0 1011.5 0.3 65
2019-10-03 18:00:00 24.4 15 Este 24 Este 0 1011.3 -0.1 58
2019-10-03 17:00:00 25.2 12 Nordeste 24 Nordeste 0 1011.1 -0.7 55
2019-10-03 16:00:00 25.8 13 Nordeste 25 Nordeste 0 1011.2 -1 54
2019-10-03 15:00:00 25.3 15 Nordeste 29 Nordeste 0 1011.4 -1.1 57
2019-10-03 14:00:00 25.1 16 Nordeste 25 Nordeste 0 1011.8 -0.8 59
2019-10-03 13:00:00 26.1 3 Noroeste 10 Sur 0 1012.2 -0.2 52
2019-10-03 12:00:00 25.4 4 Sudeste 14 Sur 0 1012.5 0.5 55
2019-10-03 11:00:00 23.8 6 Sudeste 12 Sudeste 0 1012.6 0.9 61
2019-10-03 10:00:00 21.6 4 Sur 8 Sur 0 1012.4 0.7 77
2019-10-03 09:00:00 18.3 3 Este 8 Sudoeste 0 1012 0.3 92
2019-10-03 08:00:00 16.5 2 Sudoeste 9 Sur 0 1011.7 0 94
2019-10-03 07:00:00 16.4 2 Oeste 9 Sur 0 1011.7 -0.1 95
2019-10-03 06:00:00 16.3 6 Sur 10 Sur 0 1011.7 -0.5 95
2019-10-03 05:00:00 15.8 5 Sudoeste 11 Sur 0 1011.7 -0.6 95
2019-10-03 04:00:00 15.4 7 Sur 11 Sur 0 1011.8 -0.6 94
2019-10-03 03:00:00 15.6 5 Sur 9 Sur 0 1012.2 -0.4 94
2019-10-03 02:00:00 15.8 6 Sur 9 Sudoeste 0 1012.3 0.1 94
2019-10-03 01:00:00 15.9 6 Sur 10 Sur 0 1012.4 0.8 93
2019-10-03 00:00:00 15.9 3 Sur 8 Sudoeste 0 1012.6 1.8 91
2019-10-02 23:00:00 16.9 4 Sudoeste 9 Sudoeste 0 1012.2 2.1 91
2019-10-02 22:00:00 17.3 3 Sudoeste 8 Oeste 0 1011.6 1.7 87
2019-10-02 21:00:00 18.5 5 Oeste 8 Oeste 0 1010.8 1.4 84
2019-10-02 20:00:00 19.9 2 Sur 10 Este 0 1010.1 1 77
2019-10-02 19:00:00 21.5 8 Este 18 Nordeste 0 1009.9 0.5 69
2019-10-02 18:00:00 22.6 12 Nordeste 21 Nordeste 0 1009.4 0.1 65
2019-10-02 17:00:00 22.8 14 Nordeste 27 Norte 0 1009.1 -0.4 67
2019-10-02 16:00:00 23.3 6 Nordeste 15 Nordeste 0 1009.4 -0.1 63
2019-10-02 15:00:00 22.4 8 Nordeste 18 Nordeste 0 1009.3 0 70
2019-10-02 14:00:00 21.7 12 Nordeste 22 Nordeste 0 1009.5 0.5 75
2019-10-02 13:00:00 21.5 13 Nordeste 22 Nordeste 1 1009.5 0.8 80
2019-10-02 12:00:00 22.6 16 Nordeste 28 Nordeste 0 1009.3 1 61
2019-10-02 11:00:00 23.2 15 Nordeste 27 Nordeste 0 1009 1.4 57
2019-10-02 10:00:00 23.2 19 Nordeste 29 Nordeste 0 1008.7 1.3 55
2019-10-02 09:00:00 22.8 14 Nordeste 23 Nordeste 0 1008.3 1.2 63
2019-10-02 08:00:00 21.1 12 Nordeste 28 Norte 0 1007.6 0.8 66
2019-10-02 07:00:00 21.6 16 Nordeste 27 Nordeste 0 1007.4 0.9 70
2019-10-02 06:00:00 21.9 18 Nordeste 29 Nordeste 0 1007.1 0.7 70
2019-10-02 05:00:00 21.8 22 Nordeste 42 Nordeste 0 1006.8 0.2 78
2019-10-02 04:00:00 21.9 14 Norte 21 Nordeste 0 1006.5 0.1 91
2019-10-02 03:00:00 20.5 2 Este 12 Nordeste 0 1006.4 0 93
2019-10-02 02:00:00 20.3 5 Este 12 Noroeste 0 1006.6 0.7 93
2019-10-02 01:00:00 20.2 5 Sudeste 15 Norte 0 1006.4 0.8 92
2019-10-02 00:00:00 20.6 5 Sudeste 13 Norte 0 1006.4 0.9 89
2019-10-01 23:00:00 21.8 5 Sur 14 Sur 0 1005.9 0.5 86
2019-10-01 22:00:00 22.3 6 Sudoeste 10 Sudoeste 0 1005.6 0.1 83
2019-10-01 21:00:00 23.3 7 Sur 16 Sudoeste 0 1005.5 0.1 78
2019-10-01 20:00:00 24.5 7 Sudoeste 19 Sudoeste 0 1005.4 -0.1 70
2019-10-01 19:00:00 27 9 Sudoeste 15 Sur 0 1005.5 -0.6 57
2019-10-01 18:00:00 29.5 9 Sudoeste 20 Sur 0 1005.4 -1.1 40
2019-10-01 17:00:00 30 11 Sur 32 Sur 0 1005.5 -1.7 37
2019-10-01 16:00:00 30.6 14 Sur 28 Sur 0 1006.1 -1.9 31
2019-10-01 15:00:00 30.8 12 Sur 27 Sudoeste 0 1006.5 -2.1 30
2019-10-01 14:00:00 29.9 14 Sudoeste 31 Sur 0 1007.2 -2 36
2019-10-01 13:00:00 29.1 16 Sur 32 Sudoeste 0 1008 -1.1 45
2019-10-01 12:00:00 27.2 13 Sur 23 Sur 0 1008.6 -0.3 56
2019-10-01 11:00:00 25 8 Sudoeste 18 Sudoeste 0 1009.2 0.3 79
2019-10-01 10:00:00 21.2 3 Este 5 Este 0 1009.1 0 94
2019-10-01 09:00:00 17.1 4 Sudoeste 6 Sudoeste 0 1008.9 -0.4 97
2019-10-01 08:00:00 15.9 3 Sur 7 Sudoeste 0 1008.9 -0.8 96
2019-10-01 07:00:00 15.8 3 Sur 4 Sur 0 1009.1 -1.2 96
2019-10-01 06:00:00 16.7 2 Noroeste 6 Sudoeste 0 1009.3 -1.7 95
2019-10-01 05:00:00 16.6 3 Oeste 5 Sudoeste 0 1009.7 -1.3 93
2019-10-01 04:00:00 17.6 2 Sudoeste 9 Oeste 0 1010.3 -0.9 93
2019-10-01 03:00:00 17.9 3 Oeste 6 Oeste 0 1011 -0.5 93
2019-10-01 02:00:00 19 2 Sudoeste 11 Sudoeste 0 1011 -0.6 93
2019-10-01 01:00:00 20.6 6 Sudoeste 14 Oeste 0 1011.2 -0.4 93
2019-10-01 00:00:00 20.8 3 Sudeste 10 Oeste 0 1011.5 -0.1 91
2019-09-30 23:00:00 21.6 2 Sur 12 Sur 0 1011.6 0.3 88
2019-09-30 22:00:00 22.1 8 Sur 14 Sur 0 1011.6 0.3 83
2019-09-30 21:00:00 22.3 5 Sur 9 Sudoeste 0 1011.6 0.4 81
2019-09-30 20:00:00 23.6 5 Nordeste 12 Nordeste 0 1011.3 -0.4 78
2019-09-30 19:00:00 25.4 8 Nordeste 18 Nordeste 0 1011.3 -0.8 71
2019-09-30 18:00:00 27.1 10 Nordeste 21 Nordeste 0 1011.2 -1.2 64
2019-09-30 17:00:00 27.5 12 Nordeste 24 Nordeste 0 1011.7 -1.5 60
2019-09-30 16:00:00 28.2 13 Nordeste 25 Nordeste 0 1012.1 -1.8 60
2019-09-30 15:00:00 28.8 12 Nordeste 25 Nordeste 0 1012.4 -1.9 55
2019-09-30 14:00:00 28.6 11 Nordeste 18 Norte 0 1013.2 -1.1 56
2019-09-30 13:00:00 28.4 5 Sudeste 19 Este 0 1013.9 -0.1 53
2019-09-30 12:00:00 26.9 5 Sudeste 14 Sudeste 0 1014.3 0.7 61
2019-09-30 11:00:00 24.9 4 Este 10 Sudeste 0 1014.3 1.1 73
2019-09-30 10:00:00 22.1 4 Sudeste 6 Sudeste 0 1014 1 84
2019-09-30 09:00:00 18.2 4 Sur 6 Sur 0 1013.6 0.9 87
2019-09-30 08:00:00 15.2 2 Oeste 5 Sudoeste 0 1013.2 0.6 91
2019-09-30 07:00:00 15.4 0 Calma 8 Sudoeste 0 1013 0.2 90
2019-09-30 06:00:00 16.1 5 Sudoeste 8 Sudoeste 0 1012.7 -0.3 92
2019-09-30 05:00:00 17.3 4 Sur 9 Sudoeste 0 1012.6 -0.6 93
2019-09-30 04:00:00 19.5 6 Sudoeste 10 Sudoeste 0 1012.8 -0.2 94
2019-09-30 03:00:00 20.1 6 Sur 15 Sur 0 1013 -0.1 93
2019-09-30 02:00:00 20.6 8 Sur 21 Sur 0 1013.2 0.2 92
2019-09-30 01:00:00 20.7 11 Sur 22 Sur 0 1013 0 92
2019-09-30 00:00:00 20.9 8 Sur 20 Sur 0 1013.1 0.6 91
2019-09-29 23:00:00 21.6 12 Sur 22 Sudoeste 0 1013 0.8 89
2019-09-29 22:00:00 22.1 10 Sur 21 Sudoeste 0 1013 0.7 85
2019-09-29 21:00:00 22.9 11 Sur 23 Sur 0 1012.5 0.2 79
2019-09-29 20:00:00 24.2 12 Sur 28 Sudoeste 0 1012.2 -0.3 70
2019-09-29 19:00:00 26.2 14 Sur 35 Sudoeste 0 1012.3 -0.3 60
2019-09-29 18:00:00 28.1 17 Sudoeste 32 Sur 0 1012.3 -0.7 51
2019-09-29 17:00:00 29.3 16 Sudoeste 31 Sudoeste 0 1012.5 -1.1 43
2019-09-29 16:00:00 30.8 14 Sudoeste 32 Sudoeste 0 1012.6 -1.6 38
2019-09-29 15:00:00 31.4 13 Sur 30 Sudoeste 0 1013 -1.8 34
2019-09-29 14:00:00 30.8 12 Sudoeste 25 Sur 0 1013.6 -1.4 34
2019-09-29 13:00:00 29.7 11 Sur 24 Sudoeste 0 1014.2 -0.5 43
2019-09-29 12:00:00 27.7 8 Sur 19 Sudoeste 0 1014.8 0.3 58
2019-09-29 11:00:00 25.7 9 Sur 18 Sudoeste 0 1015 0.9 73
2019-09-29 10:00:00 23 8 Sur 15 Sur 0 1014.7 0.5 89
2019-09-29 09:00:00 19.8 4 Sudoeste 10 Sudoeste 0 1014.5 -0.1 96
2019-09-29 08:00:00 18.3 6 Sur 13 Sur 0 1014.1 -0.6 97
2019-09-29 07:00:00 18 5 Sur 13 Sudoeste 0 1014.2 -0.6 96
2019-09-29 06:00:00 17.5 4 Sudoeste 8 Sur 0 1014.6 -0.8 96
2019-09-29 05:00:00 17.9 2 Sudoeste 7 Sur 0 1014.7 -0.6 95
2019-09-29 04:00:00 18.7 5 Sudoeste 8 Sudoeste 0 1014.8 -0.7 95
2019-09-29 03:00:00 18.9 3 Sudoeste 9 Sudoeste 0 1015.4 -0.4 94
2019-09-29 02:00:00 19.5 6 Sudoeste 10 Sudoeste 0 1015.3 -0.8 93
2019-09-29 01:00:00 20.2 5 Sudoeste 7 Sudoeste 0 1015.5 -0.6 91
2019-09-29 00:00:00 20.9 3 Sur 8 Sur 0 1015.8 -0.1 88
2019-09-28 23:00:00 21.6 4 Sur 8 Sur 0 1016.1 0.5 83
2019-09-28 22:00:00 22.7 5 Sudoeste 13 Sudoeste 0 1016.1 0.5 78
2019-09-28 21:00:00 23.7 6 Sudoeste 11 Sudoeste 0 1015.9 0.4 74
2019-09-28 20:00:00 24.4 5 Oeste 10 Sudoeste 0 1015.6 0 68
2019-09-28 19:00:00 25.3 8 Nordeste 19 Norte 0 1015.6 -0.3 65
2019-09-28 18:00:00 26.1 13 Nordeste 23 Nordeste 0 1015.5 -0.4 64
2019-09-28 17:00:00 27.3 17 Nordeste 26 Norte 0 1015.6 -1.1 57
2019-09-28 16:00:00 26.6 14 Nordeste 24 Nordeste 0 1015.9 -1.2 59
2019-09-28 15:00:00 28.5 15 Nordeste 24 Nordeste 0 1015.9 -1.4 57
2019-09-28 14:00:00 28.4 11 Nordeste 20 Nordeste 0 1016.7 -0.6 55
2019-09-28 13:00:00 28.6 5 Sur 15 Este 0 1017.1 0 53
2019-09-28 12:00:00 27.5 6 Este 13 Sudeste 0 1017.3 0.9 58
2019-09-28 11:00:00 25.5 4 Nordeste 9 Nordeste 0 1017.3 1.5 73
2019-09-28 10:00:00 23.2 5 Sur 9 Sudoeste 0 1017.1 1.4 85
2019-09-28 09:00:00 19.7 5 Sur 10 Sur 0 1016.4 0.8 93
2019-09-28 08:00:00 17.6 5 Sudoeste 9 Sudoeste 0 1015.8 0.4 94
2019-09-28 07:00:00 17.6 2 Sudoeste 5 Sur 0 1015.7 0.4 94
2019-09-28 06:00:00 17.8 0 Calma 5 Sur 0 1015.6 -0.2 93
2019-09-28 05:00:00 18.5 3 Sudoeste 11 Sudoeste 0 1015.4 -0.2 94
2019-09-28 04:00:00 18.9 5 Sudoeste 8 Sudoeste 0 1015.3 -0.2 94
2019-09-28 03:00:00 19.5 4 Sudoeste 10 Sudoeste 0 1015.8 0.5 93
2019-09-28 02:00:00 20.1 6 Sudoeste 8 Sudoeste 0 1015.6 0.4 92
2019-09-28 01:00:00 20.2 5 Sur 8 Sudoeste 0 1015.5 0.5 90
2019-09-28 00:00:00 21.3 5 Sur 9 Sudoeste 0 1015.3 0.7 85
2019-09-27 23:00:00 22.2 5 Sur 17 Sur 0 1015.2 1.3 80
2019-09-27 22:00:00 23 8 Sur 15 Sudoeste 0 1015 1.4 77
2019-09-27 21:00:00 23.8 9 Sudoeste 20 Sudoeste 0 1014.6 1.2 70
2019-09-27 20:00:00 24.8 12 Sudoeste 28 Sudoeste 0 1013.9 0.6 62
2019-09-27 19:00:00 27.1 14 Sudoeste 28 Sudoeste 0 1013.6 0.3 49
2019-09-27 18:00:00 28.9 14 Sudoeste 30 Sur 0 1013.4 -0.3 41
2019-09-27 17:00:00 30.1 14 Sudoeste 28 Sudoeste 0 1013.3 -0.9 39
2019-09-27 16:00:00 30.6 12 Sudoeste 26 Oeste 0 1013.3 -1.3 39
2019-09-27 15:00:00 30.5 12 Sudoeste 28 Sur 0 1013.7 -1.5 38
2019-09-27 14:00:00 29.9 11 Sudoeste 26 Sudoeste 0 1014.2 -1.5 45
2019-09-27 13:00:00 29.3 10 Sur 21 Sur 0 1014.6 -1 49
2019-09-27 12:00:00 27.7 11 Sudoeste 22 Sudoeste 0 1015.2 -0.2 56
2019-09-27 11:00:00 26 10 Sudoeste 21 Sur 0 1015.7 0.7 65
2019-09-27 10:00:00 23.7 8 Sudoeste 16 Sudoeste 0 1015.6 0.9 82
2019-09-27 09:00:00 20.2 5 Sur 10 Sudoeste 0 1015.4 0.7 93
2019-09-27 08:00:00 18.3 6 Sudoeste 12 Sudoeste 0 1015 0.2 95
2019-09-27 07:00:00 17.7 5 Sur 11 Sur 0 1014.7 -0.2 94
2019-09-27 06:00:00 18 6 Sudoeste 10 Sur 0 1014.7 -0.5 93
2019-09-27 05:00:00 18.4 3 Sudoeste 9 Sudoeste 0 1014.8 -0.7 92
2019-09-27 04:00:00 18.9 5 Sur 9 Sur 0 1014.9 -0.8 92
2019-09-27 03:00:00 19.2 6 Sur 10 Sur 0 1015.2 -0.6 91
2019-09-27 02:00:00 19.6 6 Sur 12 Sur 0 1015.5 -0.2 89
2019-09-27 01:00:00 19.9 4 Sur 12 Sudoeste 0 1015.7 0.1 84
2019-09-27 00:00:00 20.7 6 Sur 14 Sudoeste 0 1015.8 0.5 82
2019-09-26 23:00:00 21.3 8 Sur 12 Sudoeste 0 1015.7 0.9 79
2019-09-26 22:00:00 22 4 Sur 9 Sudoeste 0 1015.6 1 74
2019-09-26 21:00:00 22.8 5 Sudoeste 12 Sur 0 1015.3 1 67
2019-09-26 20:00:00 23.7 4 Oeste 18 Norte 0 1014.8 0.3 63
2019-09-26 19:00:00 24.9 11 Norte 22 Nordeste 0 1014.6 -0.1 56
2019-09-26 18:00:00 26.9 13 Nordeste 19 Nordeste 0 1014.3 -0.5 51
2019-09-26 17:00:00 27.6 12 Nordeste 21 Nordeste 0 1014.5 -0.9 47
2019-09-26 16:00:00 27.3 12 Nordeste 24 Nordeste 0 1014.7 -1.3 49
2019-09-26 15:00:00 28.3 14 Nordeste 25 Norte 0 1014.8 -1.5 47
2019-09-26 14:00:00 28.2 6 Norte 17 Oeste 0 1015.4 -0.9 43
2019-09-26 13:00:00 28.3 3 Este 13 Norte 0 1016 -0.2 42
2019-09-26 12:00:00 26.7 3 Este 9 Sudeste 0 1016.3 0.8 52
2019-09-26 11:00:00 24.9 3 Este 10 Sur 0 1016.3 1.5 63
2019-09-26 10:00:00 22.1 3 Sur 8 Sur 0 1016.2 1.7 81
2019-09-26 09:00:00 18.6 5 Sudoeste 9 Sur 0 1015.5 1.3 94
2019-09-26 08:00:00 16.5 5 Sur 9 Sur 0 1014.8 0.7 95
2019-09-26 07:00:00 16.8 4 Sudoeste 10 Sudoeste 0 1014.5 0.8 95
2019-09-26 06:00:00 17 8 Sudoeste 9 Sudoeste 0 1014.2 0.2 94
2019-09-26 05:00:00 17.2 5 Sur 9 Sur 0 1014.1 0.1 93
2019-09-26 04:00:00 17.6 5 Sur 6 Sur 0 1013.7 -0.3 92
2019-09-26 03:00:00 18.3 4 Sudoeste 8 Sudoeste 0 1014 0 91
2019-09-26 02:00:00 18.6 5 Sur 8 Oeste 0 1014 0.5 90
2019-09-26 01:00:00 18.9 5 Sudoeste 8 Sudoeste 0 1014 0.8 90
2019-09-26 00:00:00 19.1 2 Oeste 5 Sudoeste 0 1014 1.3 87
2019-09-25 23:00:00 19.6 0 Calma 8 Noroeste 0 1013.5 1.3 82
2019-09-25 22:00:00 20.4 7 Noroeste 9 Noroeste 0 1013.2 1.5 80
2019-09-25 21:00:00 21.1 5 Noroeste 9 Norte 0 1012.7 1.3 78
2019-09-25 20:00:00 21.9 7 Nordeste 19 Nordeste 0 1012.2 1 75
2019-09-25 19:00:00 23.1 12 Nordeste 31 Nordeste 0 1011.7 0.7 70
2019-09-25 18:00:00 23.8 15 Nordeste 32 Nordeste 0 1011.4 0.6 68
2019-09-25 17:00:00 24.6 18 Nordeste 33 Nordeste 0 1011.2 0.6 66
2019-09-25 16:00:00 25.8 22 Nordeste 37 Nordeste 0 1011 0.4 66
2019-09-25 15:00:00 25.3 26 Nordeste 36 Nordeste 0 1010.8 0.1 68
2019-09-25 14:00:00 27.1 22 Norte 33 Norte 0 1010.6 0 63
2019-09-25 13:00:00 27.1 18 Norte 32 Norte 0 1010.6 0.7 58
2019-09-25 12:00:00 26.8 14 Nordeste 25 Nordeste 0 1010.7 1.4 64
2019-09-25 11:00:00 24.9 10 Nordeste 15 Nordeste 0 1010.6 1.1 76
2019-09-25 10:00:00 23.5 4 Nordeste 6 Norte 0 1009.9 0.8 73
2019-09-25 09:00:00 19 2 Sudoeste 10 Oeste 0 1009.3 0.3 81
2019-09-25 08:00:00 17.9 0 Calma 8 Oeste 0 1009.5 0.2 91
2019-09-25 07:00:00 17.2 3 Sudoeste 6 Sudoeste 0 1009.1 -0.5 91
2019-09-25 06:00:00 16.9 3 Sudoeste 7 Oeste 0 1009 -0.9 90
2019-09-25 05:00:00 17.1 4 Oeste 7 Oeste 0 1009.3 -0.7 90
2019-09-25 04:00:00 17.9 4 Oeste 7 Oeste 0 1009.6 -0.8 91
2019-09-25 03:00:00 18.7 3 Noroeste 9 Sudeste 0 1009.9 -0.8 90
2019-09-25 02:00:00 20.9 5 Sur 13 Sudoeste 0 1010 -1 90
2019-09-25 01:00:00 21.7 7 Sudoeste 16 Sudoeste 0 1010.4 -0.6 88
2019-09-25 00:00:00 21.9 6 Sur 18 Sur 0 1010.7 0.1 86
2019-09-24 23:00:00 22.4 9 Sur 17 Sur 0 1011 0.6 83
2019-09-24 22:00:00 22.9 9 Sur 22 Sur 0 1011 0.9 82
2019-09-24 21:00:00 23.8 11 Sudoeste 27 Sudoeste 0 1010.6 0.2 78
2019-09-24 20:00:00 24.7 14 Sudoeste 35 Sudoeste 0 1010.4 -0.1 73
2019-09-24 19:00:00 26.7 15 Sudoeste 35 Sudoeste 0 1010.1 -0.6 61
2019-09-24 18:00:00 27.6 19 Sudoeste 37 Sudoeste 0 1010.4 -0.7 58
2019-09-24 17:00:00 28.7 18 Sudoeste 40 Sudoeste 0 1010.5 -1.5 54
2019-09-24 16:00:00 29.8 17 Sudoeste 37 Sudoeste 0 1010.7 -1.9 46
2019-09-24 15:00:00 30 19 Sudoeste 35 Sur 0 1011.1 -1.9 44
2019-09-24 14:00:00 30 17 Sudoeste 37 Sudoeste 0 1012 -1.4 44
2019-09-24 13:00:00 29.2 17 Sudoeste 38 Sudoeste 0 1012.6 -0.8 50
2019-09-24 12:00:00 27.9 19 Sudoeste 40 Sur 0 1013 -0.3 50
2019-09-24 11:00:00 26.6 13 Sudoeste -- -- -- 1013.4 0.2 59
2019-09-24 10:00:00 24.2 12 Sur 24 Sudoeste 0 1013.4 0.2 73
2019-09-24 09:00:00 20.8 3 Sudeste 13 Sur 0 1013.3 0.3 88
2019-09-24 08:00:00 18.2 6 Sur 10 Sudoeste 0 1013.2 -0.3 92
2019-09-24 07:00:00 17.3 7 Sudoeste 10 Sudoeste 0 1013.2 -0.7 90
2019-09-24 06:00:00 17.2 7 Sur 11 Sudoeste 0 1013 -1.6 91
2019-09-24 05:00:00 17.5 6 Sur 11 Sur 0 1013.5 -1.4 88
2019-09-24 04:00:00 18.1 7 Sudoeste 10 Sudoeste 0 1013.9 -1.2 88
2019-09-24 03:00:00 18.4 5 Sudoeste 10 Sudoeste 0 1014.6 -0.7 83
2019-09-24 02:00:00 18.8 5 Sudoeste 9 Sudoeste 0 1014.9 -0.4 82
2019-09-24 01:00:00 19.3 5 Sur 7 Sur 0 1015.1 -0.4 80
2019-09-24 00:00:00 20.1 5 Sudoeste 9 Oeste 0 1015.3 0.2 77
2019-09-23 23:00:00 20.9 6 Oeste 9 Oeste 0 1015.3 0.7 73
2019-09-23 22:00:00 21.7 4 Oeste 6 Noroeste 0 1015.5 1.2 71
2019-09-23 21:00:00 22.6 3 Nordeste 9 Nordeste 0 1015.1 0.8 66
2019-09-23 20:00:00 23.1 6 Nordeste 12 Este 0 1014.6 0.5 63
2019-09-23 19:00:00 24 6 Nordeste 17 Este 0 1014.3 0 59
2019-09-23 18:00:00 25 10 Este 18 Nordeste 0 1014.3 -0.2 55
2019-09-23 17:00:00 26.3 14 Nordeste 23 Nordeste 0 1014.1 -0.8 51
2019-09-23 16:00:00 26.4 12 Nordeste 23 Norte 0 1014.3 -0.9 48
2019-09-23 15:00:00 26.3 13 Nordeste 24 Nordeste 0 1014.5 -1.1 48
2019-09-23 14:00:00 25.9 13 Nordeste 24 Norte 0 1014.9 -0.9 53
2019-09-23 13:00:00 25.5 14 Nordeste 24 Nordeste 0 1015.2 -0.1 59
2019-09-23 12:00:00 25.5 14 Nordeste 29 Nordeste 0 1015.6 1 59
2019-09-23 11:00:00 24.3 14 Nordeste 26 Nordeste 0 1015.8 1.8 61
2019-09-23 10:00:00 23.8 13 Nordeste 22 Nordeste 0 1015.3 1.9 63
2019-09-23 09:00:00 22.6 15 Nordeste 23 Nordeste 0 1014.6 2.1 67
2019-09-23 08:00:00 21.9 14 Norte 22 Norte 0 1014 1.8 71
2019-09-23 07:00:00 21.9 13 Nordeste 19 Nordeste 0 1013.4 1.8 85
2019-09-23 06:00:00 21.6 10 Nordeste 14 Norte 0 1012.5 0.8 92
2019-09-23 05:00:00 20.8 7 Nordeste 12 Nordeste 0 1012.2 0.5 94
2019-09-23 04:00:00 20.4 3 Noroeste 8 Sudoeste 0 1011.6 0.3 92
2019-09-23 03:00:00 21 3 Oeste 7 Norte 0 1011.7 0.7 90
2019-09-23 02:00:00 22.6 4 Oeste 16 Sur 0 1011.7 1 88
2019-09-23 01:00:00 22.6 5 Sur 14 Sudoeste 0 1011.3 1.1 88
2019-09-23 00:00:00 23 6 Sur 13 Sudoeste 0 1011 1.3 88
2019-09-22 23:00:00 23.5 7 Sur 19 Sur 0 1010.7 1.6 85
2019-09-22 22:00:00 23.8 7 Sur 17 Sudoeste 0 1010.2 1.4 82
2019-09-22 21:00:00 24.3 9 Sudoeste 22 Sur 0 1009.7 1.3 77
2019-09-22 20:00:00 25.1 10 Sudoeste 28 Sur 0 1009.1 1.1 73
2019-09-22 19:00:00 26.6 11 Sudoeste 33 Sudoeste 0 1008.8 1 64
2019-09-22 18:00:00 28.2 16 Sudoeste 29 Sudoeste 0 1008.4 0.4 58
2019-09-22 17:00:00 30.6 14 Sudoeste 34 Sudoeste 0 1008 -0.4 46
2019-09-22 16:00:00 31.8 12 Sudoeste 27 Sur 0 1007.8 -1 43
2019-09-22 15:00:00 31.3 13 Sudoeste 25 Sudoeste 0 1008 -1.2 43
2019-09-22 14:00:00 30.3 11 Sur 24 Sur 0 1008.4 -0.8 53
2019-09-22 13:00:00 29.5 11 Sudoeste 26 Sudoeste 0 1008.8 -0.4 58
2019-09-22 12:00:00 27.4 13 Sudoeste 30 Sudoeste 0 1009.2 0.4 67
2019-09-22 11:00:00 27.4 13 Sudoeste 27 Sur 0 1009.2 0.8 70
2019-09-22 10:00:00 24 13 Sur 22 Sur 0 1009.2 1.2 86
2019-09-22 09:00:00 21.6 3 Este 6 Sudoeste 0 1008.8 1 95
2019-09-22 08:00:00 20.5 4 Sudeste 10 Sudoeste 0 1008.4 0.4 95
2019-09-22 07:00:00 20.6 6 Sur 10 Sur 0 1008 -0.1 96
2019-09-22 06:00:00 21.2 3 Sudoeste 7 Oeste 0 1007.8 -0.1 95
2019-09-22 05:00:00 21.8 4 Sur 6 Sudeste 0 1008 0.3 94
2019-09-22 04:00:00 22.3 4 Oeste 11 Sudoeste 0 1008.1 -0.1 94
2019-09-22 03:00:00 22.4 4 Sur 8 Sur 0 1007.9 -0.2 93
2019-09-22 02:00:00 22.8 2 Noroeste 7 Oeste 0 1007.7 -0.6 92
2019-09-22 01:00:00 23.1 4 Sudoeste 7 Sur 0 1008.2 0.1 91
2019-09-22 00:00:00 23.4 4 Noroeste 8 Este 0 1008.1 0.8 91
2019-09-21 23:00:00 23.6 6 Este 19 Nordeste 0 1008.3 1.5 90
2019-09-21 22:00:00 24 13 Nordeste 25 Nordeste 0 1008.1 1.5 88
2019-09-21 21:00:00 25.3 13 Norte 24 Norte 0 1007.3 0.9 76
2019-09-21 20:00:00 26.6 4 Norte 21 Nordeste 0 1006.8 0.6 63
2019-09-21 19:00:00 29.5 8 Norte 15 Sur 0 1006.6 0.6 50
2019-09-21 18:00:00 31.5 9 Sudoeste 33 Sudoeste 0 1006.4 0 38
2019-09-21 17:00:00 32.6 15 Sudoeste 36 Sur 0 1006.2 -1.2 35
2019-09-21 16:00:00 33.1 14 Sudoeste 27 Sur 0 1006 -2.8 37
2019-09-21 15:00:00 31.2 8 Sudoeste 17 Sur 0 1006.4 -2.7 53
2019-09-21 14:00:00 29.2 6 Sur 24 Sur 0 1007.4 -1.5 62
2019-09-21 13:00:00 28.2 10 Sudeste 22 Sudeste 0 1008.8 -0.1 70
2019-09-21 12:00:00 27.5 14 Sudeste 22 Este 0 1009.1 -0.6 75
2019-09-21 11:00:00 26.8 4 Este 17 Noroeste 0 1008.9 -0.5 81
2019-09-21 10:00:00 24.8 7 Norte 11 Norte 0 1008.9 -1.4 88
2019-09-21 09:00:00 23.8 4 Sur 14 Sur 0 1009.7 -0.3 91
2019-09-21 08:00:00 23.2 6 Norte 9 Norte 0 1009.4 -0.5 91
2019-09-21 07:00:00 23.6 3 Norte 10 Sudoeste 0 1010.3 0.2 89
2019-09-21 06:00:00 23.4 4 Oeste 6 Oeste 0 1010 -0.7 89
2019-09-21 05:00:00 23.3 4 Norte 11 Nordeste 0 1009.9 -1.3 89
2019-09-21 04:00:00 23 5 Noroeste 13 Noroeste 0 1010.1 -1.9 90
2019-09-21 03:00:00 22.7 5 Noroeste 10 Noroeste 0 1010.7 -2 91
2019-09-21 02:00:00 22.7 3 Nordeste 9 Nordeste 0 1011.2 -1.6 89
2019-09-21 01:00:00 23.1 3 Oeste 8 Nordeste 0 1012 -0.4 86
2019-09-21 00:00:00 23.6 0 Calma 7 Norte 0 1012.7 0.3 85
2019-09-20 23:00:00 23.4 4 Nordeste 13 Norte 0 1012.8 -0.1 84
2019-09-20 22:00:00 22.9 5 Noroeste 10 Norte 0 1012.4 -1.1 78
2019-09-20 21:00:00 23.4 6 Nordeste 13 Este 0 1012.4 -0.5 76
2019-09-20 20:00:00 24.5 9 Sudeste 18 Sudeste 0 1012.9 0 69
2019-09-20 19:00:00 25.4 10 Este 21 Nordeste 0 1013.5 0.1 67
2019-09-20 18:00:00 25.6 13 Nordeste 30 Nordeste 0 1012.9 -1 68
2019-09-20 17:00:00 26 17 Nordeste 31 Nordeste 0 1012.9 -1.2 61
2019-09-20 16:00:00 26.6 19 Nordeste 36 Norte 0 1013.4 -1.1 62
2019-09-20 15:00:00 27.1 20 Nordeste 33 Norte 0 1013.9 -1 60
2019-09-20 14:00:00 27.6 18 Nordeste 33 Norte 0 1014.1 -1.2 57
2019-09-20 13:00:00 27.6 13 Nordeste 24 Nordeste 0 1014.5 -0.8 60
2019-09-20 12:00:00 26.5 13 Norte 24 Norte 0 1014.9 0 63
2019-09-20 11:00:00 25.7 9 Nordeste 18 Norte 0 1015.3 1 71
2019-09-20 10:00:00 24 4 Norte 9 Norte 0 1015.3 1.4 84
2019-09-20 09:00:00 20.9 2 Sudoeste 4 Sudoeste 0 1014.9 1.3 98
2019-09-20 08:00:00 18.6 4 Sur 5 Sur 0 1014.3 0.5 97
2019-09-20 07:00:00 18.6 3 Sudoeste 5 Sudoeste 0 1013.9 -0.2 97
2019-09-20 06:00:00 18.7 2 Sudeste 4 Sudoeste 0 1013.6 -0.4 96
2019-09-20 05:00:00 19.5 2 Sudoeste 6 Sudoeste 0 1013.8 -0.6 96
2019-09-20 04:00:00 19.8 3 Sudoeste 5 Sudoeste 0 1014.1 -0.3 96
2019-09-20 03:00:00 20 0 Calma 6 Sudoeste 0 1014 -0.4 95
2019-09-20 02:00:00 20.6 3 Sudoeste 6 Sudoeste 0 1014.4 0.1 95
2019-09-20 01:00:00 20.7 0 Calma 6 Oeste 0 1014.4 0.3 93
2019-09-20 00:00:00 21.3 3 Sur 5 Oeste 0 1014.4 1 92
2019-09-19 23:00:00 22 3 Oeste 5 Norte 0 1014.3 1.4 89
2019-09-19 22:00:00 22.7 4 Noroeste 9 Noroeste 0 1014.1 1.4 86
2019-09-19 21:00:00 23.5 6 Norte 11 Norte 0 1013.4 0.8 83
2019-09-19 20:00:00 23.9 8 Nordeste 15 Norte 0 1012.9 0.5 79
2019-09-19 19:00:00 24.9 9 Nordeste 21 Nordeste 0 1012.7 0.3 74
2019-09-19 18:00:00 25.9 13 Nordeste 23 Nordeste 0 1012.6 -0.3 69
2019-09-19 17:00:00 27.2 13 Nordeste 27 Este 0 1012.4 -0.7 63
2019-09-19 16:00:00 27.9 14 Nordeste 28 Nordeste 0 1012.4 -1 62
2019-09-19 15:00:00 28.6 14 Nordeste 27 Este 0 1012.9 -0.6 59
2019-09-19 14:00:00 28.6 13 Nordeste 21 Nordeste 0 1013.1 -0.1 60
2019-09-19 13:00:00 28.2 10 Nordeste 19 Este 0 1013.4 0.5 62
2019-09-19 12:00:00 27.4 8 Nordeste 18 Norte 0 1013.5 0.9 64
2019-09-19 11:00:00 26.5 7 Nordeste 16 Nordeste 0 1013.2 0.9 75
2019-09-19 10:00:00 24 3 Norte 6 Norte 0 1012.9 1 85
2019-09-19 09:00:00 20 3 Sudoeste 8 Sudoeste 0 1012.6 0.5 96
2019-09-19 08:00:00 18.5 4 Sur 9 Sur 0 1012.3 0 97
2019-09-19 07:00:00 18.3 5 Sur 8 Sur 0 1011.9 -0.9 97
2019-09-19 06:00:00 18.6 5 Sur 8 Sudoeste 0 1012.1 -0.6 96
2019-09-19 05:00:00 18.8 4 Sudoeste 6 Sur 0 1012.3 -0.1 96
2019-09-19 04:00:00 19.2 2 Sudoeste 4 Sudoeste 0 1012.8 0.6 95
2019-09-19 03:00:00 19.5 3 Sudoeste 8 Sudoeste 0 1012.7 0.5 95
2019-09-19 02:00:00 20.1 4 Sudoeste 6 Sudoeste 0 1012.4 0 94
2019-09-19 01:00:00 20.3 4 Sudoeste 9 Sur 0 1012.2 0.1 92
2019-09-19 00:00:00 20.9 3 Oeste 8 Noroeste 0 1012.2 0.5 91
2019-09-18 23:00:00 21.8 5 Oeste 8 Oeste 0 1012.4 1.1 90
2019-09-18 22:00:00 22.5 2 Norte 8 Nordeste 0 1012.1 1.2 87
2019-09-18 21:00:00 23.2 5 Nordeste 14 Nordeste 0 1011.7 1 83
2019-09-18 20:00:00 24.2 8 Nordeste 19 Este 0 1011.3 0.7 76
2019-09-18 19:00:00 25.7 10 Nordeste 21 Este 0 1010.9 0 66
2019-09-18 18:00:00 27.7 13 Este 23 Nordeste 0 1010.7 -0.5 55
2019-09-18 17:00:00 28 12 Nordeste 23 Nordeste 0 1010.6 -0.8 54
2019-09-18 16:00:00 29.2 13 Nordeste 26 Nordeste 0 1010.9 -1 53
2019-09-18 15:00:00 29 15 Nordeste 28 Nordeste 0 1011.2 -0.9 54
2019-09-18 14:00:00 30.2 5 Sudeste 13 Nordeste 0 1011.4 -0.3 43
2019-09-18 13:00:00 29.2 6 Este 14 Sudeste 0 1011.9 0.7 51
2019-09-18 12:00:00 27.6 3 Sur 11 Sudoeste 0 1012.1 1.4 60
2019-09-18 11:00:00 25.8 6 Nordeste 13 Nordeste 0 1011.7 1.3 74
2019-09-18 10:00:00 23.6 4 Sudeste 8 Sudeste 0 1011.2 1.2 89
2019-09-18 09:00:00 20.5 3 Sur 7 Sudoeste 0 1010.7 1 97
2019-09-18 08:00:00 18.5 4 Sur 7 Oeste 0 1010.4 0.7 98
2019-09-18 07:00:00 19 3 Sudoeste 9 Sur 0 1010 -0.1 97
2019-09-18 06:00:00 19.5 5 Oeste 8 Oeste 0 1009.7 -1.2 97
2019-09-18 05:00:00 20.2 4 Oeste 7 Oeste 0 1009.7 -1.8 97
2019-09-18 04:00:00 20.6 2 Sur 5 Oeste 0 1010.1 -1.7 95
2019-09-18 03:00:00 21.7 4 Sur 7 Sur 0 1010.9 -0.8 94
2019-09-18 02:00:00 22.4 5 Noroeste 13 Sur 0 1011.5 -0.3 93
2019-09-18 01:00:00 23.4 8 Sur 13 Sur 0 1011.8 0.3 87
2019-09-18 00:00:00 23.9 5 Sur 10 Sur 0 1011.7 1 83
2019-09-17 23:00:00 23.9 5 Sudoeste 11 Sudoeste 0 1011.8 1.6 86
2019-09-17 22:00:00 24.3 3 Sudoeste 7 Nordeste 0 1011.5 1.3 86
2019-09-17 21:00:00 24.7 5 Nordeste 11 Nordeste 0 1010.7 0 81
2019-09-15 18:00:00 29 13 Este 24 Este 0 1015.5 -0.3 60
2019-09-15 17:00:00 29.8 14 Sudeste 26 Este 0 1015.6 -0.8 57
2019-09-15 16:00:00 30.4 15 Este 29 Sudeste 0 1015.8 -1 51
2019-09-15 15:00:00 30.8 12 Este 25 Este 0 1015.8 -1.1 50
2019-09-15 14:00:00 30.7 12 Este 23 Este 0 1016.4 -0.7 53
2019-09-15 13:00:00 29.6 13 Este 29 Este 0 1016.8 -0.1 59
2019-09-15 12:00:00 29.6 13 Este 32 Este 0 1016.9 0.2 55
2019-09-15 11:00:00 28.4 10 Este 20 Este 0 1017.1 0.2 63
2019-09-15 10:00:00 26.6 7 Este 14 Este 0 1016.9 0 79
2019-09-15 09:00:00 23.7 6 Noroeste 13 Norte 0 1016.7 -0.1 95
2019-09-15 08:00:00 23.3 8 Norte 20 Norte 0 1016.9 0.6 95
2019-09-15 07:00:00 23.3 9 Nordeste 17 Nordeste 0 1016.9 0.4 94
2019-09-15 06:00:00 23.4 11 Norte 18 Norte 0 1016.8 -0.6 94
2019-09-15 05:00:00 23.4 13 Norte 22 Nordeste 0 1016.3 -1.2 94
2019-09-15 04:00:00 23.5 13 Norte 21 Norte 0 1016.5 -1.2 94
2019-09-15 03:00:00 23.2 9 Norte 14 Norte 0 1017.4 -1.6 94
2019-09-15 02:00:00 23.3 8 Norte 13 Norte 0 1017.5 -1.6 94
2019-09-15 01:00:00 23.1 6 Norte 15 Norte 0 1017.7 -0.8 92
2019-09-15 00:00:00 23.3 8 Norte 15 Norte 0 1019 1.5 91